OMRK/RKT METAR and TAF weather

Enter ICAO airport designator
Station Type Date Time Source
OMRK METAR 2022/12/10 03:00 UTC NOAA

OMRK 100300Z 17007KT 9999 FEW040 19/15 Q1015 A2997


Station Type Date Time Source
OMRK Decoded METAR 2022/12/10 03:00 UTC NOAA

Ras Al Khaimah International Airport, United Arab Emirates (OMRK) 25-37N 055-56E 31M
Dec 09, 2022 - 10:00 PM EST / 2022.12.10 0300 UTC
Wind: from the S (170 degrees) at 8 MPH (7 KT):0
Visibility: greater than 7 mile(s):0
Sky conditions: mostly clear
Temperature: 66 F (19 C)
Dew Point: 59 F (15 C)
Relative Humidity: 77%
Pressure (altimeter): 29.97 in. Hg (1014 hPa)
ob: OMRK 100300Z 17007KT 9999 FEW040 19/15 Q1015 A2997
cycle: 3

Station Type Date Time Source
OMRK TAF 2022/12/09 18:56 UTC NOAA

TAF OMRK 091700Z 0918/1100 28010KT 8000 FEW040
BECMG 0918/0920 21007KT
BECMG 1007/1009 28012KT PROB30
TEMPO 1010/1100 VRB18G30KT 3000 SHRA BLDU FEW030TCU
BECMG 1015/1017 20007KT

Example: see airport list